Time;durP1;ratioP1;P1;durP2;ratioP2;P2;SDS_P1;SDS_P2;PMS_P1;PMS_P2;Temp;Humidity;BMP_temperature;BMP_pressure;BME280_temperature;BME280_humidity;BME280_pressure;Samples;Min_cycle;Max_cycle;Signal;HPM_P1;HPM_P2
2023/06/06 00:01:00;;;;;;;;;;;;;;;14.29;38.30;101296.95;105626;1298;69540;-87
2023/06/06 00:03:48;;;;;;;;;;;;;;;14.27;38.43;101297.67;105593;1301;71421;-87
2023/06/06 00:06:35;;;;;;;;;;;;;;;14.28;38.43;101294.88;105571;1301;59132;-87
2023/06/06 00:09:21;;;;;;;;;;;;;;;14.31;38.53;101295.52;105466;1297;59983;-87
2023/06/06 00:12:12;;;;;;;;;;;;;;;14.30;38.56;101295.36;105530;1297;73450;-87
2023/06/06 00:14:59;;;;;;;;;;;;;;;14.28;38.74;101295.56;105604;1298;67071;-87
2023/06/06 00:17:45;;;;;;;;;;;;;;;14.27;38.76;101296.29;105493;1297;71533;-87
2023/06/06 00:20:32;;;;;;;;;;;;;;;14.26;38.85;101291.80;105514;1302;58955;-87
2023/06/06 00:23:18;;;;;;;;;;;;;;;14.25;38.90;101294.95;105465;1297;58987;-87
2023/06/06 00:26:04;;;;;;;;;;;;;;;14.26;39.03;101291.80;105594;1297;73381;-87
2023/06/06 00:28:50;;;;;;;;;;;;;;;14.32;39.11;101291.52;105615;1298;66634;-87
2023/06/06 00:31:36;;;;;;;;;;;;;;;14.33;39.16;101294.09;105437;1299;71815;-87
2023/06/06 00:34:22;;;;;;;;;;;;;;;14.31;39.25;101289.27;105538;1299;58956;-87
2023/06/06 00:37:08;;;;;;;;;;;;;;;14.27;39.33;101287.45;105576;1297;58823;-87
2023/06/06 00:39:54;;;;;;;;;;;;;;;14.29;39.41;101284.64;105531;1300;73336;-87
2023/06/06 00:42:40;;;;;;;;;;;;;;;14.30;39.48;101286.16;105496;1298;68591;-87
2023/06/06 00:45:26;;;;;;;;;;;;;;;14.31;39.57;101285.48;105506;1298;72632;-87
2023/06/06 00:48:11;;;;;;;;;;;;;;;14.32;39.69;101285.95;105494;1297;59105;-87
2023/06/06 00:50:58;;;;;;;;;;;;;;;14.32;39.76;101286.98;105435;1299;59059;-87
2023/06/06 00:53:45;;;;;;;;;;;;;;;14.33;39.74;101283.69;105513;1299;74531;-88
2023/06/06 00:56:31;;;;;;;;;;;;;;;14.30;39.81;101285.30;105640;1297;69004;-88
2023/06/06 00:59:18;;;;;;;;;;;;;;;14.32;39.84;101285.44;105564;1298;71527;-87
2023/06/06 01:02:09;;;;;;;;;;;;;;;14.28;39.90;101286.90;105590;1300;58472;-87
2023/06/06 01:04:57;;;;;;;;;;;;;;;14.23;40.12;101286.48;105505;1297;60269;-87
2023/06/06 01:07:43;;;;;;;;;;;;;;;14.23;40.08;101282.48;105557;1297;75377;-87
2023/06/06 01:10:30;;;;;;;;;;;;;;;14.22;40.21;101283.02;105555;1297;68629;-87
2023/06/06 01:13:24;;;;;;;;;;;;;;;14.21;40.15;101282.52;105561;1297;70924;-87
2023/06/06 01:16:15;;;;;;;;;;;;;;;14.19;40.24;101284.65;105525;1300;59057;-87
2023/06/06 01:19:01;;;;;;;;;;;;;;;14.15;40.39;101287.34;105456;1297;59546;-87
2023/06/06 01:21:48;;;;;;;;;;;;;;;14.11;40.45;101287.92;105438;1299;74464;-87
2023/06/06 01:24:35;;;;;;;;;;;;;;;14.08;40.40;101286.95;105432;1300;68783;-88
2023/06/06 01:27:21;;;;;;;;;;;;;;;14.08;40.55;101287.81;105487;1297;71924;-88
2023/06/06 01:30:07;;;;;;;;;;;;;;;14.06;40.64;101287.01;105534;1297;58957;-88
2023/06/06 01:33:01;;;;;;;;;;;;;;;14.00;40.73;101287.50;105443;1299;59006;-87
2023/06/06 01:36:11;;;;;;;;;;;;;;;13.97;40.77;101287.38;105628;1297;74510;-87
2023/06/06 01:39:03;;;;;;;;;;;;;;;13.99;40.74;101292.89;105479;1297;68463;-88
2023/06/06 01:41:53;;;;;;;;;;;;;;;13.98;40.83;101293.42;105457;1297;72163;-88
2023/06/06 01:44:39;;;;;;;;;;;;;;;13.99;40.87;101289.95;105570;1299;59101;-88
2023/06/06 01:47:26;;;;;;;;;;;;;;;13.99;40.97;101295.49;105508;1297;59496;-88
2023/06/06 01:50:12;;;;;;;;;;;;;;;13.98;41.01;101293.95;105510;1297;74394;-88
2023/06/06 01:52:58;;;;;;;;;;;;;;;13.93;41.14;101294.05;105585;1297;68041;-88
2023/06/06 01:55:44;;;;;;;;;;;;;;;13.86;41.13;101295.37;105448;1297;72331;-88
2023/06/06 01:58:30;;;;;;;;;;;;;;;13.85;41.32;101293.66;105491;1297;59425;-88
2023/06/06 02:01:16;;;;;;;;;;;;;;;13.84;41.37;101295.05;105597;1298;59070;-88
2023/06/06 02:04:02;;;;;;;;;;;;;;;13.86;41.41;101296.95;105522;1297;74770;-88
2023/06/06 02:06:48;;;;;;;;;;;;;;;13.86;41.41;101290.52;105519;1299;68609;-88
2023/06/06 02:09:34;;;;;;;;;;;;;;;13.88;41.48;101288.23;105604;1298;72559;-87
2023/06/06 02:12:20;;;;;;;;;;;;;;;13.89;41.51;101289.42;105489;1303;58929;-87
2023/06/06 02:15:07;;;;;;;;;;;;;;;13.86;41.73;101290.69;105501;1297;60409;-87
2023/06/06 02:17:53;;;;;;;;;;;;;;;13.89;41.68;101290.11;105441;1298;74569;-87
2023/06/06 02:20:39;;;;;;;;;;;;;;;13.93;41.80;101288.66;105603;1297;68423;-87
2023/06/06 02:23:25;;;;;;;;;;;;;;;13.95;41.85;101289.52;105446;1297;72453;-87
2023/06/06 02:26:12;;;;;;;;;;;;;;;13.96;41.88;101290.70;105351;1299;257545;-87
2023/06/06 02:28:58;;;;;;;;;;;;;;;13.98;41.98;101292.73;105466;1302;59907;-87
2023/06/06 02:31:44;;;;;;;;;;;;;;;13.98;42.02;101292.73;105624;1297;73416;-87
2023/06/06 02:34:29;;;;;;;;;;;;;;;13.99;42.08;101291.85;105523;1299;69134;-87
2023/06/06 02:37:16;;;;;;;;;;;;;;;13.97;42.10;101291.71;105440;1298;72644;-87
2023/06/06 02:40:08;;;;;;;;;;;;;;;13.96;42.22;101292.42;105495;1299;59005;-87
2023/06/06 02:42:54;;;;;;;;;;;;;;;13.94;42.26;101291.77;105516;1300;59969;-87
2023/06/06 02:45:40;;;;;;;;;;;;;;;13.95;42.34;101291.06;105461;1299;73303;-87
2023/06/06 02:48:26;;;;;;;;;;;;;;;13.97;42.41;101291.20;105567;1297;68462;-87
2023/06/06 02:51:12;;;;;;;;;;;;;;;13.98;42.47;101290.14;105467;1297;71367;-87
2023/06/06 02:53:58;;;;;;;;;;;;;;;13.97;42.58;101287.20;105618;1298;59194;-87
2023/06/06 02:56:44;;;;;;;;;;;;;;;13.97;42.64;101288.59;105489;1299;59189;-87
2023/06/06 02:59:30;;;;;;;;;;;;;;;14.01;42.65;101290.60;105479;1297;73347;-87
2023/06/06 03:02:16;;;;;;;;;;;;;;;14.04;42.65;101290.00;105475;1297;69417;-87
2023/06/06 03:05:02;;;;;;;;;;;;;;;14.10;42.75;101295.92;105498;1299;71377;-87
2023/06/06 03:07:48;;;;;;;;;;;;;;;14.12;42.81;101294.52;105538;1296;59015;-88
2023/06/06 03:10:34;;;;;;;;;;;;;;;14.12;42.83;101294.66;105527;1297;59403;-87
2023/06/06 03:13:20;;;;;;;;;;;;;;;14.12;42.92;101295.89;105499;1297;73535;-87
2023/06/06 03:16:06;;;;;;;;;;;;;;;14.12;42.95;101295.70;105447;1297;67417;-88
2023/06/06 03:18:55;;;;;;;;;;;;;;;14.17;43.02;101294.77;105462;1297;72460;-87
2023/06/06 03:21:41;;;;;;;;;;;;;;;14.23;43.09;101291.69;105556;1297;59061;-87
2023/06/06 03:24:29;;;;;;;;;;;;;;;14.24;43.07;101291.30;105621;1299;59197;-87
2023/06/06 03:27:16;;;;;;;;;;;;;;;14.28;43.17;101286.56;105551;1300;74281;-87
2023/06/06 03:30:06;;;;;;;;;;;;;;;14.34;43.14;101287.66;105516;1297;67219;-87
2023/06/06 03:32:52;;;;;;;;;;;;;;;14.37;43.25;101286.20;105488;1297;72697;-88
2023/06/06 03:35:38;;;;;;;;;;;;;;;14.42;43.26;101285.77;105592;1297;59376;-87
2023/06/06 03:38:24;;;;;;;;;;;;;;;14.46;43.30;101286.55;105513;1297;60410;-87
2023/06/06 03:41:10;;;;;;;;;;;;;;;14.52;43.31;101286.42;105582;1297;73308;-87
2023/06/06 03:43:56;;;;;;;;;;;;;;;14.56;43.37;101288.57;105492;1297;68685;-87
2023/06/06 03:46:42;;;;;;;;;;;;;;;14.60;43.43;101286.23;105421;1297;71324;-87
2023/06/06 03:49:28;;;;;;;;;;;;;;;14.66;43.46;101283.31;105465;1297;59376;-87
2023/06/06 03:52:14;;;;;;;;;;;;;;;14.71;43.41;101282.52;105574;1297;59058;-87
2023/06/06 03:55:00;;;;;;;;;;;;;;;14.79;43.45;101284.42;105456;1297;74075;-87
2023/06/06 03:57:46;;;;;;;;;;;;;;;14.87;43.46;101284.59;105469;1297;67494;-86
2023/06/06 04:00:32;;;;;;;;;;;;;;;14.95;43.45;101285.09;105490;1297;71402;-87
2023/06/06 04:03:18;;;;;;;;;;;;;;;15.00;43.57;101284.29;105484;1297;59469;-87
2023/06/06 04:06:08;;;;;;;;;;;;;;;15.05;43.67;101285.05;105443;1299;59052;-86
2023/06/06 04:08:53;;;;;;;;;;;;;;;15.15;43.67;101279.71;105601;1297;73485;-87
2023/06/06 04:11:40;;;;;;;;;;;;;;;15.27;43.76;101278.39;105592;1297;67358;-87
2023/06/06 04:14:26;;;;;;;;;;;;;;;15.37;43.74;101281.26;105555;1297;71160;-87
2023/06/06 04:17:11;;;;;;;;;;;;;;;15.48;43.77;101280.66;105532;1297;58962;-87
2023/06/06 04:19:57;;;;;;;;;;;;;;;15.56;43.75;101280.27;105465;1297;59029;-87
2023/06/06 04:22:43;;;;;;;;;;;;;;;15.68;43.72;101280.83;105507;1297;74640;-88
2023/06/06 04:25:29;;;;;;;;;;;;;;;15.79;43.72;101278.63;105503;1297;68519;-87
2023/06/06 04:28:19;;;;;;;;;;;;;;;15.88;43.84;101279.41;105535;1298;72279;-86
2023/06/06 04:31:07;;;;;;;;;;;;;;;15.97;43.90;101277.61;105451;1297;60060;-87
2023/06/06 04:33:54;;;;;;;;;;;;;;;16.10;43.85;101278.09;105660;1297;59014;-87
2023/06/06 04:36:40;;;;;;;;;;;;;;;16.22;43.74;101279.83;105570;1300;73388;-88
2023/06/06 04:39:27;;;;;;;;;;;;;;;16.36;43.73;101278.57;105510;1297;67624;-88
2023/06/06 04:42:15;;;;;;;;;;;;;;;16.49;43.91;101277.29;105451;1297;73923;-88
2023/06/06 04:45:02;;;;;;;;;;;;;;;16.62;43.83;101278.66;105451;1299;59468;-88
2023/06/06 04:47:48;;;;;;;;;;;;;;;16.77;43.97;101284.97;105588;1297;59720;-88
2023/06/06 04:50:34;;;;;;;;;;;;;;;16.95;43.91;101280.23;105529;1297;73296;-89
2023/06/06 04:53:21;;;;;;;;;;;;;;;17.15;43.71;101278.20;105379;1297;68437;-88
2023/06/06 04:56:07;;;;;;;;;;;;;;;17.33;43.72;101280.20;105365;1297;71337;-88
2023/06/06 04:58:53;;;;;;;;;;;;;;;17.50;43.77;101280.30;105450;1297;59098;-89
2023/06/06 05:01:41;;;;;;;;;;;;;;;17.71;43.69;101279.25;105479;1300;59318;-88
2023/06/06 05:04:29;;;;;;;;;;;;;;;17.98;43.53;101281.27;105431;1297;74161;-88
2023/06/06 05:07:15;;;;;;;;;;;;;;;18.08;43.38;101279.86;105431;1297;67503;-88
2023/06/06 05:10:01;;;;;;;;;;;;;;;18.16;43.44;101279.02;105547;1297;70692;-88
2023/06/06 05:12:47;;;;;;;;;;;;;;;18.24;43.43;101280.44;105552;1297;59024;-88
2023/06/06 05:15:33;;;;;;;;;;;;;;;18.35;43.56;101280.38;105429;1297;59038;-88
2023/06/06 05:18:20;;;;;;;;;;;;;;;18.48;43.53;101277.63;105479;1297;74537;-88
2023/06/06 05:21:06;;;;;;;;;;;;;;;18.70;43.48;101276.80;105407;1299;68454;-88
2023/06/06 05:23:53;;;;;;;;;;;;;;;19.09;43.41;101279.58;105586;1297;71459;-88
2023/06/06 05:26:39;;;;;;;;;;;;;;;19.55;43.24;101284.98;105400;1297;59132;-88
2023/06/06 05:29:26;;;;;;;;;;;;;;;19.86;42.92;101284.86;105557;1297;58952;-88
2023/06/06 05:32:13;;;;;;;;;;;;;;;20.00;42.93;101285.64;105469;1297;72940;-88
2023/06/06 05:35:01;;;;;;;;;;;;;;;20.07;42.76;101285.16;105527;1297;68445;-88
2023/06/06 05:37:49;;;;;;;;;;;;;;;20.14;42.88;101281.18;105562;1297;71275;-88
2023/06/06 05:40:35;;;;;;;;;;;;;;;20.20;42.86;101284.77;105404;1297;59060;-88
2023/06/06 05:43:21;;;;;;;;;;;;;;;20.30;42.74;101289.02;105405;1300;59088;-88
2023/06/06 05:46:07;;;;;;;;;;;;;;;20.41;42.76;101287.46;105449;1297;74780;-88
2023/06/06 05:48:53;;;;;;;;;;;;;;;20.52;42.75;101289.08;105371;1297;68716;-88
2023/06/06 05:51:39;;;;;;;;;;;;;;;20.57;42.73;101292.49;105446;1297;71328;-88
2023/06/06 05:54:25;;;;;;;;;;;;;;;20.68;42.72;101291.65;105289;1299;58988;-88
2023/06/06 05:57:21;;;;;;;;;;;;;;;20.81;42.56;101291.15;105396;1298;60299;-88
2023/06/06 06:00:08;;;;;;;;;;;;;;;20.89;42.65;101292.70;105415;1297;75165;-88
2023/06/06 06:02:58;;;;;;;;;;;;;;;21.01;42.56;101293.20;105376;1297;67723;-88
2023/06/06 06:05:44;;;;;;;;;;;;;;;21.18;42.56;101293.59;105400;1297;71434;-89
2023/06/06 06:08:31;;;;;;;;;;;;;;;21.39;42.48;101293.95;105379;1299;59024;-89
2023/06/06 06:11:18;;;;;;;;;;;;;;;21.53;42.38;101293.57;105369;1297;60114;-88
2023/06/06 06:14:04;;;;;;;;;;;;;;;21.67;42.35;101295.30;105431;1299;73205;-89
2023/06/06 06:16:50;;;;;;;;;;;;;;;21.83;42.37;101295.37;105446;1299;67470;-88
2023/06/06 06:19:36;;;;;;;;;;;;;;;22.01;42.26;101299.31;105410;1297;71876;-88
2023/06/06 06:22:23;;;;;;;;;;;;;;;22.19;42.12;101302.27;105409;1297;58919;-88
2023/06/06 06:25:12;;;;;;;;;;;;;;;22.33;42.13;101300.40;105427;1297;59790;-88
2023/06/06 06:27:58;;;;;;;;;;;;;;;22.49;41.98;101301.13;105285;1298;73493;-89
2023/06/06 06:30:44;;;;;;;;;;;;;;;22.65;41.96;101304.98;105483;1300;67577;-88
2023/06/06 06:33:33;;;;;;;;;;;;;;;22.74;41.85;101304.31;105429;1297;73052;-88
2023/06/06 06:36:20;;;;;;;;;;;;;;;22.90;41.84;101306.08;105490;1297;58613;-89
2023/06/06 06:39:09;;;;;;;;;;;;;;;23.02;41.61;101311.16;105497;1297;58924;-88
2023/06/06 06:41:55;;;;;;;;;;;;;;;23.06;41.40;101311.83;105531;1299;74574;-88
2023/06/06 06:44:41;;;;;;;;;;;;;;;23.12;41.41;101319.39;105379;1299;67484;-89
2023/06/06 06:47:27;;;;;;;;;;;;;;;23.24;41.22;101324.72;105159;1298;337374;-89
2023/06/06 06:50:13;;;;;;;;;;;;;;;23.32;41.06;101321.73;105494;1299;59248;-89
2023/06/06 06:53:02;;;;;;;;;;;;;;;23.40;41.01;101325.86;105524;1297;60047;-88
2023/06/06 06:55:51;;;;;;;;;;;;;;;23.48;40.88;101325.00;105406;1297;74394;-88
2023/06/06 06:58:37;;;;;;;;;;;;;;;23.56;40.81;101324.91;105451;1297;68348;-88
2023/06/06 07:01:27;;;;;;;;;;;;;;;23.65;40.85;101328.42;105350;1297;73877;-88
2023/06/06 07:04:13;;;;;;;;;;;;;;;23.70;40.69;101329.36;105500;1297;59069;-88
2023/06/06 07:06:59;;;;;;;;;;;;;;;23.79;40.59;101330.08;105372;1299;59406;-88
2023/06/06 07:09:45;;;;;;;;;;;;;;;23.88;40.31;101331.27;105475;1297;74385;-88
2023/06/06 07:12:31;;;;;;;;;;;;;;;24.03;40.30;101332.10;105366;1297;68922;-88
2023/06/06 07:15:17;;;;;;;;;;;;;;;24.17;40.10;101329.70;105467;1297;71394;-88
2023/06/06 07:18:04;;;;;;;;;;;;;;;24.21;40.01;101331.02;105393;1299;58820;-89
2023/06/06 07:20:51;;;;;;;;;;;;;;;24.23;39.82;101331.60;105498;1297;61172;-88
2023/06/06 07:23:37;;;;;;;;;;;;;;;24.24;39.83;101335.39;105449;1297;74589;-88
2023/06/06 07:26:25;;;;;;;;;;;;;;;24.24;39.83;101332.58;105485;1297;67475;-89
2023/06/06 07:29:11;;;;;;;;;;;;;;;24.23;39.75;101333.52;105423;1297;72587;-88
2023/06/06 07:31:57;;;;;;;;;;;;;;;24.25;39.65;101336.08;105362;1299;58868;-88
2023/06/06 07:34:42;;;;;;;;;;;;;;;24.23;39.50;101336.54;105532;1297;59032;-89
2023/06/06 07:37:28;;;;;;;;;;;;;;;24.21;39.47;101335.77;105346;1297;75368;-89
2023/06/06 07:40:16;;;;;;;;;;;;;;;24.27;39.60;101335.09;105473;1297;67575;-88
2023/06/06 07:43:02;;;;;;;;;;;;;;;24.23;39.41;101331.80;105421;1299;73621;-88
2023/06/06 07:45:48;;;;;;;;;;;;;;;24.23;39.33;101331.04;105392;1297;59276;-88
2023/06/06 07:48:34;;;;;;;;;;;;;;;24.23;39.40;101332.64;105517;1297;59050;-88
2023/06/06 07:51:20;;;;;;;;;;;;;;;24.26;39.37;101329.52;105533;1299;75252;-88
2023/06/06 07:54:06;;;;;;;;;;;;;;;24.32;39.18;101327.52;105317;1297;68574;-88
2023/06/06 07:56:52;;;;;;;;;;;;;;;24.36;39.18;101323.72;105400;1297;71368;-89
2023/06/06 07:59:38;;;;;;;;;;;;;;;24.44;39.00;101322.03;105436;1299;59039;-88
2023/06/06 08:02:23;;;;;;;;;;;;;;;24.54;39.09;101327.02;105388;1299;59004;-88
2023/06/06 08:05:10;;;;;;;;;;;;;;;24.80;39.03;101325.52;105562;1297;74228;-88
2023/06/06 08:07:58;;;;;;;;;;;;;;;25.58;38.80;101324.80;105470;1298;67512;-89
2023/06/06 08:10:44;;;;;;;;;;;;;;;26.26;38.57;101325.73;105422;1297;71526;-89
2023/06/06 08:13:30;;;;;;;;;;;;;;;26.95;38.45;101322.51;105419;1297;59037;-89
2023/06/06 08:16:16;;;;;;;;;;;;;;;27.55;38.19;101322.98;105469;1297;59400;-87
2023/06/06 08:19:03;;;;;;;;;;;;;;;27.91;38.01;101321.58;105528;1298;73220;-87
2023/06/06 08:21:49;;;;;;;;;;;;;;;28.00;37.98;101323.77;105421;1297;67417;-87
2023/06/06 08:24:35;;;;;;;;;;;;;;;27.69;37.69;101322.96;105462;1297;71547;-86
2023/06/06 08:27:21;;;;;;;;;;;;;;;27.51;37.96;101315.33;105454;1297;60504;-87
2023/06/06 08:30:08;;;;;;;;;;;;;;;27.45;37.81;101312.73;105382;1299;59401;-86
2023/06/06 08:32:54;;;;;;;;;;;;;;;27.42;37.68;101312.95;105509;1297;72687;-87
2023/06/06 08:35:40;;;;;;;;;;;;;;;27.32;37.52;101314.05;101619;1297;5153568;-87
2023/06/06 08:38:26;;;;;;;;;;;;;;;27.33;37.52;101312.24;105526;1297;59012;-87
2023/06/06 08:41:12;;;;;;;;;;;;;;;27.41;37.48;101308.59;105436;1297;58941;-87
2023/06/06 08:43:59;;;;;;;;;;;;;;;27.39;37.27;101308.21;105443;1297;73778;-87
2023/06/06 08:46:46;;;;;;;;;;;;;;;27.24;36.92;101309.74;105453;1297;68113;-87
2023/06/06 08:49:32;;;;;;;;;;;;;;;27.13;36.98;101305.39;105465;1297;71460;-86
2023/06/06 08:52:19;;;;;;;;;;;;;;;27.09;36.87;101306.61;105388;1297;59317;-86
2023/06/06 08:55:06;;;;;;;;;;;;;;;27.11;36.92;101304.84;105370;1297;60010;-86
2023/06/06 08:57:52;;;;;;;;;;;;;;;27.15;36.61;101304.73;105421;1299;73949;-87
2023/06/06 09:00:38;;;;;;;;;;;;;;;27.03;36.50;101301.73;105428;1298;68581;-86
2023/06/06 09:03:24;;;;;;;;;;;;;;;26.81;35.91;101297.36;105425;1297;71437;-86
2023/06/06 09:06:11;;;;;;;;;;;;;;;26.68;36.17;101296.13;105535;1297;58879;-86
2023/06/06 09:08:57;;;;;;;;;;;;;;;26.70;35.88;101294.22;105558;1297;59373;-86
2023/06/06 09:11:43;;;;;;;;;;;;;;;26.59;35.76;101297.19;105384;1297;74931;-86
2023/06/06 09:14:29;;;;;;;;;;;;;;;26.51;35.56;101297.59;105545;1297;67477;-86
2023/06/06 09:17:16;;;;;;;;;;;;;;;26.40;35.41;101296.85;105416;1297;73190;-86
2023/06/06 09:20:06;;;;;;;;;;;;;;;26.39;35.69;101297.10;105363;1299;59529;-86
2023/06/06 09:22:52;;;;;;;;;;;;;;;26.50;35.52;101294.64;105413;1297;59213;-86
2023/06/06 09:25:42;;;;;;;;;;;;;;;26.59;35.22;101296.46;105514;1297;72101;-86
2023/06/06 09:28:38;;;;;;;;;;;;;;;26.74;35.33;101292.01;105434;1297;67289;-86
2023/06/06 09:31:27;;;;;;;;;;;;;;;26.94;35.19;101293.40;105392;1297;71478;-86
2023/06/06 09:34:13;;;;;;;;;;;;;;;27.15;35.08;101299.09;105332;1297;59841;-86
2023/06/06 09:36:59;;;;;;;;;;;;;;;27.32;34.83;101295.66;105406;1298;59387;-86
2023/06/06 09:39:45;;;;;;;;;;;;;;;27.44;34.51;101296.16;105365;1298;73436;-86
2023/06/06 09:42:31;;;;;;;;;;;;;;;27.41;34.44;101287.89;105463;1299;67140;-86
2023/06/06 09:45:18;;;;;;;;;;;;;;;27.38;34.22;101283.34;105395;1299;71681;-86
2023/06/06 09:48:04;;;;;;;;;;;;;;;27.39;34.51;101284.89;105516;1297;58995;-86
2023/06/06 09:50:50;;;;;;;;;;;;;;;27.45;33.82;101283.71;105394;1297;58604;-86
2023/06/06 09:53:36;;;;;;;;;;;;;;;27.31;33.43;101283.70;105445;1299;73433;-86
2023/06/06 09:56:23;;;;;;;;;;;;;;;27.21;33.24;101283.37;105490;1297;67369;-86
2023/06/06 09:59:10;;;;;;;;;;;;;;;27.02;33.05;101281.83;105367;1297;71404;-86
2023/06/06 10:02:03;;;;;;;;;;;;;;;26.91;33.41;101278.90;105340;1297;59213;-86
2023/06/06 10:04:50;;;;;;;;;;;;;;;26.97;33.17;101281.32;105474;1298;59234;-86
2023/06/06 10:07:37;;;;;;;;;;;;;;;27.08;33.25;101279.26;105450;1300;75301;-86
2023/06/06 10:10:23;;;;;;;;;;;;;;;27.22;32.89;101284.59;105490;1297;67404;-86
2023/06/06 10:13:10;;;;;;;;;;;;;;;27.11;32.52;101282.90;105307;1300;71497;-86
2023/06/06 10:15:57;;;;;;;;;;;;;;;27.12;32.27;101282.13;105420;1297;58902;-86
2023/06/06 10:18:46;;;;;;;;;;;;;;;26.90;32.19;101272.29;105428;1297;58847;-86
2023/06/06 10:21:33;;;;;;;;;;;;;;;26.89;32.31;101269.51;105524;1297;74446;-86
2023/06/06 10:24:19;;;;;;;;;;;;;;;27.02;32.05;101274.20;105429;1299;67934;-86
2023/06/06 10:27:11;;;;;;;;;;;;;;;27.05;31.88;101275.05;105349;1297;71464;-86
2023/06/06 10:30:01;;;;;;;;;;;;;;;27.05;31.21;101275.05;105401;1297;59236;-85
2023/06/06 10:32:51;;;;;;;;;;;;;;;27.12;31.49;101274.34;105314;1297;59144;-86
2023/06/06 10:35:38;;;;;;;;;;;;;;;27.12;31.23;101269.77;105504;1297;75217;-86
2023/06/06 10:38:24;;;;;;;;;;;;;;;27.08;31.27;101268.62;105575;1297;67689;-86
2023/06/06 10:41:14;;;;;;;;;;;;;;;27.10;31.55;101269.04;105537;1297;71497;-86
2023/06/06 10:44:00;;;;;;;;;;;;;;;27.18;31.12;101266.66;105490;1297;59595;-86
2023/06/06 10:46:50;;;;;;;;;;;;;;;27.18;30.92;101262.86;105513;1299;59167;-86
2023/06/06 10:49:35;;;;;;;;;;;;;;;27.18;30.91;101257.59;105496;1297;73118;-86
2023/06/06 10:52:24;;;;;;;;;;;;;;;27.25;31.09;101259.17;105559;1300;68487;-86
2023/06/06 10:55:16;;;;;;;;;;;;;;;27.38;30.99;101256.10;105517;1297;72529;-86
2023/06/06 10:58:05;;;;;;;;;;;;;;;27.48;31.04;101259.02;105408;1299;59436;-86
2023/06/06 11:00:56;;;;;;;;;;;;;;;27.52;30.88;101260.29;105527;1297;59126;-86
2023/06/06 11:03:42;;;;;;;;;;;;;;;27.49;30.69;101259.67;105483;1298;75461;-86
2023/06/06 11:06:28;;;;;;;;;;;;;;;27.43;30.50;101256.59;105541;1299;69017;-86
2023/06/06 11:09:52;;;;;;;;;;;;;;;27.37;30.23;101254.60;105507;1297;71434;-86
2023/06/06 11:12:38;;;;;;;;;;;;;;;27.31;30.31;101250.73;104831;1305;59464;-86
2023/06/06 11:15:30;;;;;;;;;;;;;;;27.32;30.15;101254.24;104783;1305;59776;-85
2023/06/06 11:18:34;;;;;;;;;;;;;;;27.12;30.13;101246.55;104798;1306;73759;-86
2023/06/06 11:21:20;;;;;;;;;;;;;;;26.99;30.17;101249.10;104867;1305;67315;-85
2023/06/06 11:24:07;;;;;;;;;;;;;;;26.96;30.15;101251.17;104843;1306;73012;-86
2023/06/06 11:26:53;;;;;;;;;;;;;;;26.93;29.81;101250.30;104889;1306;59228;-85
2023/06/06 11:29:40;;;;;;;;;;;;;;;26.78;29.52;101241.83;104872;1306;60060;-86
2023/06/06 11:32:26;;;;;;;;;;;;;;;26.74;29.70;101235.60;104804;1306;74272;-86
2023/06/06 11:35:18;;;;;;;;;;;;;;;26.75;29.63;101231.27;104809;1305;67454;-86
2023/06/06 11:38:05;;;;;;;;;;;;;;;26.78;29.37;101232.30;104758;1305;72854;-86
2023/06/06 11:40:51;;;;;;;;;;;;;;;26.71;29.50;101235.08;104785;1305;58966;-86
2023/06/06 11:43:37;;;;;;;;;;;;;;;26.68;29.44;101232.29;105201;1297;58962;-86
2023/06/06 11:46:23;;;;;;;;;;;;;;;26.65;29.52;101230.42;105492;1298;74987;-86
2023/06/06 11:49:09;;;;;;;;;;;;;;;26.64;29.44;101226.20;105481;1297;68645;-86
2023/06/06 11:51:56;;;;;;;;;;;;;;;26.63;29.43;101220.47;105424;1297;71732;-86
2023/06/06 11:54:50;;;;;;;;;;;;;;;26.60;29.30;101220.89;105531;1297;59058;-85
2023/06/06 11:57:37;;;;;;;;;;;;;;;26.57;29.15;101222.17;105512;1297;59928;-85
2023/06/06 12:00:27;;;;;;;;;;;;;;;26.50;29.30;101217.23;97842;1299;5002688;-85
2023/06/06 12:03:17;;;;;;;;;;;;;;;26.53;29.30;101213.14;105511;1297;67406;-85
2023/06/06 12:06:07;;;;;;;;;;;;;;;26.57;29.20;101212.48;105505;1297;72588;-86
2023/06/06 12:08:53;;;;;;;;;;;;;;;26.61;29.12;101213.38;105372;1297;59531;-86
2023/06/06 12:11:48;;;;;;;;;;;;;;;26.72;29.16;101210.08;105530;1297;59011;-86
2023/06/06 12:14:34;;;;;;;;;;;;;;;26.78;29.05;101200.64;105347;1297;73183;-86
2023/06/06 12:17:24;;;;;;;;;;;;;;;26.84;28.97;101202.64;105478;1297;68119;-86
2023/06/06 12:20:10;;;;;;;;;;;;;;;26.82;28.84;101202.27;105480;1297;71501;-86
2023/06/06 12:22:56;;;;;;;;;;;;;;;26.78;28.80;101199.58;105447;1297;58870;-85
2023/06/06 12:25:42;;;;;;;;;;;;;;;26.71;28.72;101201.10;105447;1297;59735;-86
2023/06/06 12:28:28;;;;;;;;;;;;;;;26.67;28.69;101200.00;105475;1299;73248;-86
2023/06/06 12:31:17;;;;;;;;;;;;;;;26.64;28.66;101200.05;105485;1297;67203;-86
2023/06/06 12:34:03;;;;;;;;;;;;;;;26.62;28.73;101200.36;105375;1297;71660;-85
2023/06/06 12:36:52;;;;;;;;;;;;;;;26.65;28.66;101199.79;105422;1297;59236;-86
2023/06/06 12:39:40;;;;;;;;;;;;;;;26.68;28.42;101198.14;105442;1297;59516;-86
2023/06/06 12:42:26;;;;;;;;;;;;;;;26.63;28.15;101199.61;105577;1297;74370;-86
2023/06/06 12:45:12;;;;;;;;;;;;;;;26.52;28.32;101198.00;105517;1297;67513;-86
2023/06/06 12:48:02;;;;;;;;;;;;;;;26.44;28.21;101190.33;105361;1298;71442;-86
2023/06/06 12:50:48;;;;;;;;;;;;;;;26.35;27.95;101186.14;105513;1297;59139;-85
2023/06/06 12:53:34;;;;;;;;;;;;;;;26.33;28.14;101186.48;105464;1299;59348;-86
2023/06/06 12:56:20;;;;;;;;;;;;;;;26.34;28.12;101189.55;105490;1299;75293;-86
2023/06/06 12:59:06;;;;;;;;;;;;;;;26.31;28.06;101192.58;105504;1299;68484;-86
2023/06/06 13:01:55;;;;;;;;;;;;;;;26.29;28.07;101192.23;105490;1297;72350;-86
2023/06/06 13:04:41;;;;;;;;;;;;;;;26.28;28.10;101195.31;105355;1297;59076;-86
2023/06/06 13:07:27;;;;;;;;;;;;;;;26.25;27.89;101195.83;105483;1297;59432;-86
2023/06/06 13:10:13;;;;;;;;;;;;;;;26.16;27.79;101192.98;105409;1299;74400;-86
2023/06/06 13:13:01;;;;;;;;;;;;;;;26.09;27.74;101192.44;105493;1297;67874;-86
2023/06/06 13:15:47;;;;;;;;;;;;;;;26.01;27.71;101192.64;105471;1297;71447;-86
2023/06/06 13:18:37;;;;;;;;;;;;;;;25.95;27.72;101194.68;105429;1297;59387;-86
2023/06/06 13:21:23;;;;;;;;;;;;;;;25.95;27.79;101191.02;105254;1297;59200;-86
2023/06/06 13:24:09;;;;;;;;;;;;;;;25.94;27.92;101187.52;105448;1301;73041;-85
2023/06/06 13:26:55;;;;;;;;;;;;;;;25.97;27.88;101188.86;105418;1297;68836;-86
2023/06/06 13:29:41;;;;;;;;;;;;;;;25.98;27.98;101189.86;105429;1297;72423;-86
2023/06/06 13:32:27;;;;;;;;;;;;;;;26.02;28.01;101185.30;105326;1297;59027;-86
2023/06/06 13:35:13;;;;;;;;;;;;;;;26.07;27.92;101184.61;105464;1298;60023;-85
2023/06/06 13:37:59;;;;;;;;;;;;;;;26.08;28.04;101181.39;105391;1297;73428;-86
2023/06/06 13:40:45;;;;;;;;;;;;;;;26.09;28.05;101180.92;105517;1297;67357;-86
2023/06/06 13:43:31;;;;;;;;;;;;;;;26.13;28.11;101176.08;105257;1297;72724;-86
2023/06/06 13:46:17;;;;;;;;;;;;;;;26.14;28.00;101176.70;105463;1297;58769;-86
2023/06/06 13:49:02;;;;;;;;;;;;;;;26.13;27.92;101170.73;105470;1297;59287;-86
2023/06/06 13:51:48;;;;;;;;;;;;;;;26.10;27.98;101166.88;105418;1298;74405;-86
2023/06/06 13:54:35;;;;;;;;;;;;;;;26.13;28.22;101162.08;105433;1297;68218;-86
2023/06/06 13:57:22;;;;;;;;;;;;;;;26.18;28.10;101160.66;105442;1297;73243;-86
2023/06/06 14:00:11;;;;;;;;;;;;;;;26.23;28.15;101158.91;105412;1300;59559;-86
2023/06/06 14:02:57;;;;;;;;;;;;;;;26.25;28.10;101161.02;105474;1297;59572;-86
2023/06/06 14:05:43;;;;;;;;;;;;;;;26.27;28.16;101164.45;105412;1299;73677;-86